Time;durP1;ratioP1;P1;durP2;ratioP2;P2;SDS_P1;SDS_P2;PMS_P1;PMS_P2;Temp;Humidity;BMP_temperature;BMP_pressure;BME280_temperature;BME280_humidity;BME280_pressure;Samples;Min_cycle;Max_cycle;Signal;HPM_P1;HPM_P2
2022/09/15 00:01:59;;;;;;;7.22;2.50;;;13.10;99.90;;;;;;5037186;28;20539;-74
2022/09/15 00:04:24;;;;;;;6.05;2.88;;;13.10;99.90;;;;;;5037297;28;20042;-73
2022/09/15 00:06:50;;;;;;;10.30;3.00;;;13.30;99.90;;;;;;5037099;28;20041;-74
2022/09/15 00:09:15;;;;;;;5.50;2.90;;;13.40;99.90;;;;;;5036995;28;20079;-74
2022/09/15 00:11:41;;;;;;;5.25;2.58;;;13.40;99.90;;;;;;5036924;28;20081;-74
2022/09/15 00:14:07;;;;;;;9.07;3.00;;;13.40;99.90;;;;;;5037001;28;20045;-74
2022/09/15 00:16:34;;;;;;;8.70;3.33;;;13.50;99.90;;;;;;5036951;28;20049;-74
2022/09/15 00:19:00;;;;;;;7.15;3.45;;;13.60;99.90;;;;;;5037159;28;20450;-74
2022/09/15 00:21:29;;;;;;;5.57;3.20;;;13.70;99.90;;;;;;5036987;28;20053;-74
2022/09/15 00:23:55;;;;;;;7.57;3.30;;;13.60;99.90;;;;;;5037171;28;20407;-73
2022/09/15 00:26:23;;;;;;;11.07;3.90;;;13.80;99.90;;;;;;5036746;28;20120;-74
2022/09/15 00:28:49;;;;;;;10.77;4.50;;;13.90;99.90;;;;;;5039285;28;20048;-73
2022/09/15 00:31:21;;;;;;;9.50;2.97;;;13.90;99.90;;;;;;5056816;28;20094;-74
2022/09/15 00:33:52;;;;;;;7.82;3.58;;;14.00;99.90;;;;;;5056292;28;20049;-74
2022/09/15 00:36:19;;;;;;;12.23;3.70;;;14.00;99.90;;;;;;5056203;28;20473;-73
2022/09/15 00:38:45;;;;;;;10.60;3.50;;;14.00;99.90;;;;;;5056747;28;20085;-73
2022/09/15 00:41:14;;;;;;;12.52;3.60;;;14.00;99.90;;;;;;5056465;28;20045;-74
2022/09/15 00:43:58;;;;;;;6.60;3.05;;;14.10;99.90;;;;;;5053179;28;20134;-71
2022/09/15 00:46:30;;;;;;;6.15;3.22;;;14.10;99.90;;;;;;5018420;28;20053;-71
2022/09/15 00:49:12;;;;;;;8.25;3.15;;;14.10;99.90;;;;;;5036142;28;20059;-71
2022/09/15 00:51:44;;;;;;;7.72;3.05;;;14.10;99.90;;;;;;5036123;28;20128;-72
2022/09/15 00:54:15;;;;;;;8.40;3.22;;;14.10;99.90;;;;;;5018886;28;20049;-71
2022/09/15 00:56:42;;;;;;;9.73;3.30;;;14.10;99.90;;;;;;5035481;28;20042;-71
2022/09/15 00:59:13;;;;;;;5.30;2.45;;;14.10;99.90;;;;;;5040506;28;20044;-71
2022/09/15 01:01:42;;;;;;;6.13;2.70;;;14.10;99.90;;;;;;5056447;28;20053;-71
2022/09/15 01:04:08;;;;;;;6.88;2.60;;;14.10;99.90;;;;;;5056316;28;20071;-71
2022/09/15 01:06:43;;;;;;;9.55;3.17;;;14.10;99.90;;;;;;5055949;28;20057;-71
2022/09/15 01:09:26;;;;;;;8.15;2.20;;;14.10;99.90;;;;;;5056196;28;20040;-72
2022/09/15 01:11:52;;;;;;;8.02;2.80;;;14.10;99.90;;;;;;5055750;28;20120;-72
2022/09/15 01:14:18;;;;;;;9.25;3.00;;;14.10;99.90;;;;;;5047242;28;20125;-71
2022/09/15 01:17:00;;;;;;;6.45;2.92;;;14.10;99.90;;;;;;5035716;28;20045;-72
2022/09/15 01:20:30;;;;;;;8.32;2.47;;;14.10;99.90;;;;;;5035616;28;20060;-71
2022/09/15 01:23:04;;;;;;;7.43;2.80;;;14.00;99.90;;;;;;4955315;29;20051;-71
2022/09/15 01:25:50;;;;;;;7.50;2.65;;;14.00;99.90;;;;;;4955464;29;20148;-71
2022/09/15 01:28:52;;;;;;;7.47;2.95;;;14.00;99.90;;;;;;5006002;28;20062;-71
2022/09/15 01:31:22;;;;;;;9.30;2.90;;;14.00;99.90;;;;;;5017776;28;20052;-72
2022/09/15 01:33:51;;;;;;;6.10;2.60;;;14.00;99.90;;;;;;5055855;28;20434;-71
2022/09/15 01:37:01;;;;;;;7.57;2.53;;;13.90;99.90;;;;;;5055467;28;20049;-71
2022/09/15 01:39:32;;;;;;;6.30;2.25;;;13.90;99.90;;;;;;5054544;28;20064;-71
2022/09/15 01:42:11;;;;;;;9.90;2.90;;;13.90;99.90;;;;;;5055028;28;20518;-71
2022/09/15 01:44:44;;;;;;;6.13;2.38;;;13.90;99.90;;;;;;5053298;28;20045;-72
2022/09/15 01:47:12;;;;;;;6.13;2.50;;;13.90;99.90;;;;;;5037765;28;20098;-72
2022/09/15 01:49:48;;;;;;;5.90;2.50;;;13.80;99.90;;;;;;5055562;28;20472;-72
2022/09/15 01:52:17;;;;;;;8.50;2.78;;;13.80;99.90;;;;;;5055117;28;20044;-71
2022/09/15 01:54:47;;;;;;;9.20;2.85;;;13.80;99.90;;;;;;5055203;28;20075;-72
2022/09/15 01:57:20;;;;;;;5.22;2.67;;;13.80;99.90;;;;;;5055096;28;20183;-71
2022/09/15 01:59:47;;;;;;;7.07;2.65;;;13.70;99.90;;;;;;5040553;28;20056;-73
2022/09/15 02:02:48;;;;;;;13.30;3.08;;;13.80;99.90;;;;;;5035223;28;20041;-73
2022/09/15 02:05:24;;;;;;;6.78;2.30;;;13.70;99.90;;;;;;5021646;28;20493;-73
2022/09/15 02:08:24;;;;;;;10.35;2.63;;;13.70;99.90;;;;;;5035055;28;20056;-73
2022/09/15 02:10:57;;;;;;;7.82;2.72;;;13.70;99.90;;;;;;5035141;28;20045;-73
2022/09/15 02:13:38;;;;;;;9.43;2.90;;;13.70;99.90;;;;;;5034947;28;20389;-73
2022/09/15 02:16:12;;;;;;;7.90;2.80;;;13.70;99.90;;;;;;5017349;28;20083;-74
2022/09/15 02:18:44;;;;;;;8.82;2.60;;;13.60;99.90;;;;;;5035280;28;20088;-73
2022/09/15 02:21:39;;;;;;;8.80;3.00;;;13.70;99.90;;;;;;5034840;28;20045;-71
2022/09/15 02:24:10;;;;;;;6.47;2.78;;;13.70;99.90;;;;;;5027945;28;20096;-71
2022/09/15 02:26:39;;;;;;;15.75;2.95;;;13.70;99.90;;;;;;5034977;28;20056;-71
2022/09/15 02:29:08;;;;;;;9.13;2.35;;;13.80;99.90;;;;;;5047014;28;20088;-71
2022/09/15 02:31:38;;;;;;;8.13;2.00;;;13.80;99.90;;;;;;5054086;28;20516;-70
2022/09/15 02:34:10;;;;;;;10.55;2.05;;;13.90;99.90;;;;;;5054852;28;20113;-71
2022/09/15 02:36:36;;;;;;;11.70;2.08;;;13.90;99.90;;;;;;5054630;28;20477;-71
2022/09/15 02:39:09;;;;;;;7.35;1.70;;;13.90;99.90;;;;;;5054422;28;20055;-71
2022/09/15 02:41:36;;;;;;;7.90;1.80;;;13.90;99.90;;;;;;5054511;28;20075;-71
2022/09/15 02:44:02;;;;;;;8.52;1.50;;;14.00;99.90;;;;;;5054505;28;20067;-71
2022/09/15 02:46:28;;;;;;;10.73;2.03;;;14.00;99.90;;;;;;5054156;28;20048;-71
2022/09/15 02:48:55;;;;;;;7.80;1.80;;;14.00;99.90;;;;;;5037037;28;20434;-71
2022/09/15 02:51:21;;;;;;;8.07;1.88;;;13.90;99.90;;;;;;5054745;28;20466;-71
2022/09/15 02:53:47;;;;;;;7.97;1.83;;;13.90;99.90;;;;;;5054479;28;20429;-71
2022/09/15 02:56:15;;;;;;;6.72;1.85;;;14.00;99.90;;;;;;5054128;28;20040;-71
2022/09/15 02:58:41;;;;;;;9.52;1.60;;;13.90;99.90;;;;;;5044941;28;20454;-71
2022/09/15 03:01:12;;;;;;;7.90;1.98;;;13.90;99.90;;;;;;5034275;28;20137;-71
2022/09/15 03:03:37;;;;;;;11.38;1.95;;;13.90;99.90;;;;;;5034376;28;20083;-71
2022/09/15 03:06:15;;;;;;;7.38;1.55;;;13.80;99.90;;;;;;5034130;28;20139;-71
2022/09/15 03:08:47;;;;;;;7.47;1.75;;;13.80;99.90;;;;;;5034159;28;20045;-73
2022/09/15 03:11:13;;;;;;;6.47;1.40;;;13.80;99.90;;;;;;5034611;28;20438;-73
2022/09/15 03:13:38;;;;;;;6.50;1.65;;;13.80;99.90;;;;;;5044280;28;20044;-73
2022/09/15 03:16:11;;;;;;;7.63;2.15;;;13.90;99.90;;;;;;5053821;28;20041;-71
2022/09/15 03:18:37;;;;;;;7.93;1.67;;;13.80;99.90;;;;;;5054281;28;20045;-72
2022/09/15 03:21:05;;;;;;;6.32;1.90;;;13.80;99.90;;;;;;5056813;28;20323;-72
2022/09/15 03:23:31;;;;;;;8.35;1.90;;;13.70;99.90;;;;;;5057555;28;20446;-72
2022/09/15 03:26:00;;;;;;;5.63;1.40;;;13.70;99.90;;;;;;5057473;28;20373;-72
2022/09/15 03:28:26;;;;;;;6.35;1.42;;;13.80;99.90;;;;;;5050990;28;20371;-71
2022/09/15 03:30:53;;;;;;;7.55;1.90;;;13.80;99.90;;;;;;5038068;28;20401;-71
2022/09/15 03:33:20;;;;;;;8.00;1.90;;;13.70;99.90;;;;;;5037702;28;20087;-72
2022/09/15 03:35:47;;;;;;;7.38;1.75;;;13.80;99.90;;;;;;5037783;28;20385;-72
2022/09/15 03:38:13;;;;;;;10.23;2.55;;;13.80;99.90;;;;;;5037551;28;20052;-71
2022/09/15 03:40:41;;;;;;;7.38;1.67;;;13.70;99.90;;;;;;5037799;28;20057;-71
2022/09/15 03:43:08;;;;;;;7.10;1.58;;;13.70;99.90;;;;;;5037605;28;20045;-72
2022/09/15 03:45:33;;;;;;;6.35;1.35;;;13.70;99.90;;;;;;5047157;28;20053;-71
2022/09/15 03:47:59;;;;;;;8.40;1.70;;;13.70;99.90;;;;;;5055641;28;20052;-74
2022/09/15 03:50:24;;;;;;;6.32;1.33;;;13.60;99.90;;;;;;5040211;28;20045;-74
2022/09/15 03:52:50;;;;;;;8.68;1.67;;;13.70;99.90;;;;;;5057693;28;20063;-74
2022/09/15 03:55:16;;;;;;;5.78;1.30;;;13.60;99.90;;;;;;5057412;28;20048;-74
2022/09/15 03:57:41;;;;;;;6.45;1.70;;;13.60;99.90;;;;;;5057999;28;20059;-72
2022/09/15 04:00:07;;;;;;;7.78;1.60;;;13.60;99.90;;;;;;5058147;28;20049;-73
2022/09/15 04:02:33;;;;;;;10.52;2.00;;;13.60;99.90;;;;;;5057636;28;20441;-73
2022/09/15 04:04:58;;;;;;;7.25;1.60;;;13.70;99.90;;;;;;5055429;28;20093;-73
2022/09/15 04:07:24;;;;;;;13.38;1.63;;;13.60;99.90;;;;;;5045840;28;20029;-73
2022/09/15 04:09:50;;;;;;;7.75;1.60;;;13.70;99.90;;;;;;5056932;28;20362;-73
2022/09/15 04:12:16;;;;;;;9.40;1.60;;;13.80;99.90;;;;;;5042265;28;20037;-73
2022/09/15 04:14:42;;;;;;;6.53;1.52;;;13.60;99.90;;;;;;5037142;28;20524;-74
2022/09/15 04:17:09;;;;;;;5.90;1.55;;;13.60;99.90;;;;;;5036857;28;20049;-73
2022/09/15 04:19:35;;;;;;;10.85;1.60;;;13.60;99.90;;;;;;5037084;28;20053;-73
2022/09/15 04:22:01;;;;;;;6.13;1.30;;;13.60;99.90;;;;;;5046855;28;20085;-73
2022/09/15 04:24:27;;;;;;;6.68;1.65;;;13.60;99.90;;;;;;5056863;28;20080;-75
2022/09/15 04:26:52;;;;;;;5.60;1.58;;;13.60;99.90;;;;;;5056747;28;20033;-73
2022/09/15 04:29:18;;;;;;;8.40;1.70;;;13.60;99.90;;;;;;5056916;28;20052;-74
2022/09/15 04:31:45;;;;;;;9.32;1.80;;;13.50;99.90;;;;;;5055743;28;20041;-74
2022/09/15 04:34:11;;;;;;;7.13;1.73;;;13.50;99.90;;;;;;5055604;28;20088;-74
2022/09/15 04:36:37;;;;;;;6.30;1.60;;;13.50;99.90;;;;;;5056744;28;20041;-73
2022/09/15 04:39:04;;;;;;;12.02;1.90;;;13.50;99.90;;;;;;5022816;28;20037;-72
2022/09/15 04:41:32;;;;;;;8.50;1.38;;;13.30;99.90;;;;;;5056386;28;20477;-71
2022/09/15 04:43:58;;;;;;;7.30;1.67;;;13.30;99.90;;;;;;5056523;28;20071;-73
2022/09/15 04:46:24;;;;;;;7.60;1.40;;;13.20;99.90;;;;;;5056492;28;20153;-74
2022/09/15 04:48:49;;;;;;;7.85;2.05;;;13.20;99.90;;;;;;5047232;28;20453;-74
2022/09/15 04:51:18;;;;;;;9.32;1.63;;;13.20;99.90;;;;;;5054686;28;20067;-73
2022/09/15 04:53:44;;;;;;;8.05;1.67;;;13.20;99.90;;;;;;5056341;28;20111;-73
2022/09/15 04:56:21;;;;;;;7.95;1.70;;;13.30;99.90;;;;;;5055998;28;20055;-74
2022/09/15 04:58:56;;;;;;;6.78;1.80;;;13.30;99.90;;;;;;5055932;28;20050;-72
2022/09/15 05:01:28;;;;;;;6.03;1.25;;;13.30;99.90;;;;;;5055832;28;20051;-75
2022/09/15 05:03:54;;;;;;;7.68;1.70;;;13.30;99.90;;;;;;5048779;28;20056;-73
2022/09/15 05:06:23;;;;;;;7.35;1.60;;;13.30;99.90;;;;;;5036289;28;20048;-73
2022/09/15 05:08:50;;;;;;;7.05;1.83;;;13.30;99.90;;;;;;5036243;28;20370;-73
2022/09/15 05:11:17;;;;;;;6.10;1.65;;;13.50;99.90;;;;;;5035763;28;20046;-74
2022/09/15 05:13:43;;;;;;;7.85;1.50;;;13.40;99.90;;;;;;5035611;28;20045;-74
2022/09/15 05:16:18;;;;;;;6.70;1.83;;;13.40;99.90;;;;;;5035780;28;20099;-73
2022/09/15 05:18:45;;;;;;;6.47;1.50;;;13.40;99.90;;;;;;5035667;28;20381;-71
2022/09/15 05:21:13;;;;;;;8.20;1.35;;;13.40;99.90;;;;;;5035678;28;20049;-74
2022/09/15 05:23:39;;;;;;;9.57;1.50;;;13.40;99.90;;;;;;5035892;28;20500;-74
2022/09/15 05:26:16;;;;;;;9.55;1.70;;;13.40;99.90;;;;;;5035326;28;20053;-74
2022/09/15 05:28:45;;;;;;;8.20;1.83;;;13.40;99.90;;;;;;5035337;28;20462;-74
2022/09/15 05:31:23;;;;;;;7.45;1.30;;;13.30;99.90;;;;;;5035577;28;20052;-74
2022/09/15 05:33:49;;;;;;;7.75;1.85;;;13.40;99.90;;;;;;5040348;28;20044;-74
2022/09/15 05:36:16;;;;;;;6.35;1.58;;;13.20;99.90;;;;;;5054729;28;20484;-73
2022/09/15 05:38:42;;;;;;;6.75;1.40;;;13.20;99.90;;;;;;5055135;28;20057;-74
2022/09/15 05:41:11;;;;;;;7.82;1.55;;;13.10;99.90;;;;;;5055178;28;20156;-73
2022/09/15 05:43:38;;;;;;;8.55;1.67;;;13.10;99.90;;;;;;5055233;28;20048;-74
2022/09/15 05:46:05;;;;;;;6.47;1.58;;;13.10;99.90;;;;;;5055017;28;20472;-74
2022/09/15 05:48:31;;;;;;;5.75;1.30;;;13.10;99.90;;;;;;5054882;28;20334;-74
2022/09/15 05:50:57;;;;;;;12.38;1.90;;;13.10;99.90;;;;;;5055059;28;20051;-74
2022/09/15 05:53:23;;;;;;;8.25;1.65;;;13.20;99.90;;;;;;5037439;28;20079;-74
2022/09/15 05:55:53;;;;;;;7.45;1.60;;;13.30;99.90;;;;;;5055334;28;20465;-74
2022/09/15 05:58:18;;;;;;;8.20;1.77;;;13.40;99.90;;;;;;5055286;28;20052;-74
2022/09/15 06:00:44;;;;;;;11.75;1.90;;;13.50;99.90;;;;;;5055222;28;20049;-74
2022/09/15 06:03:14;;;;;;;9.30;1.90;;;13.50;99.90;;;;;;5054988;28;20079;-74
2022/09/15 06:05:39;;;;;;;7.72;1.52;;;13.50;99.90;;;;;;5055040;28;20346;-74
2022/09/15 06:08:05;;;;;;;7.90;1.75;;;13.50;99.90;;;;;;5045443;28;20037;-74
2022/09/15 06:10:31;;;;;;;8.43;1.58;;;13.60;99.90;;;;;;5034796;28;20045;-73
2022/09/15 06:12:56;;;;;;;7.53;1.88;;;13.60;99.90;;;;;;5035200;28;20050;-73
2022/09/15 06:15:23;;;;;;;9.45;1.67;;;13.80;99.90;;;;;;5035125;28;20049;-73
2022/09/15 06:17:49;;;;;;;7.63;1.60;;;13.70;99.90;;;;;;5035098;28;20061;-73
2022/09/15 06:20:15;;;;;;;8.52;1.70;;;13.70;99.90;;;;;;5050095;28;20054;-73
2022/09/15 06:22:41;;;;;;;7.10;1.55;;;13.80;99.90;;;;;;5034665;28;20128;-74
2022/09/15 06:25:07;;;;;;;10.65;1.90;;;13.90;99.90;;;;;;5034664;28;20132;-75
2022/09/15 06:27:32;;;;;;;8.63;1.90;;;14.00;99.90;;;;;;5035815;28;20045;-74
2022/09/15 06:29:58;;;;;;;6.70;1.63;;;14.10;99.90;;;;;;5034681;28;20421;-74
2022/09/15 06:32:24;;;;;;;6.88;1.60;;;14.10;99.90;;;;;;5034735;28;20052;-73
2022/09/15 06:34:50;;;;;;;9.00;1.77;;;14.20;99.90;;;;;;5034898;28;20064;-74
2022/09/15 06:37:16;;;;;;;7.38;1.65;;;14.40;99.90;;;;;;5034743;28;20132;-73
2022/09/15 06:39:44;;;;;;;6.40;1.40;;;14.40;99.90;;;;;;5034533;28;20064;-74
2022/09/15 06:42:10;;;;;;;7.10;1.48;;;14.50;99.90;;;;;;5034850;28;20064;-74
2022/09/15 06:44:36;;;;;;;8.80;1.83;;;14.60;99.90;;;;;;5034502;28;20442;-73
2022/09/15 06:47:02;;;;;;;8.20;1.95;;;14.60;99.90;;;;;;5034294;28;20080;-73
2022/09/15 06:49:28;;;;;;;9.25;1.90;;;14.70;99.90;;;;;;5034367;28;20412;-71
2022/09/15 06:51:55;;;;;;;5.47;1.50;;;14.70;99.90;;;;;;5034465;28;20049;-71
2022/09/15 06:54:20;;;;;;;13.35;2.15;;;14.80;99.90;;;;;;5034763;28;20451;-71
2022/09/15 06:56:46;;;;;;;6.57;2.03;;;15.00;99.90;;;;;;5044406;28;20041;-72
2022/09/15 06:59:13;;;;;;;8.15;1.67;;;15.00;99.90;;;;;;5058607;28;20041;-72
2022/09/15 07:01:39;;;;;;;7.82;1.35;;;15.10;99.90;;;;;;5058204;28;20068;-74
2022/09/15 07:04:07;;;;;;;9.43;1.92;;;15.20;99.90;;;;;;5058614;28;20438;-74
2022/09/15 07:06:33;;;;;;;6.57;1.48;;;15.30;99.90;;;;;;5041293;28;20049;-72
2022/09/15 07:09:01;;;;;;;9.55;1.65;;;15.30;99.90;;;;;;5058129;28;20459;-74
2022/09/15 07:11:27;;;;;;;4.60;1.23;;;15.50;99.90;;;;;;5057604;28;20457;-74
2022/09/15 07:13:53;;;;;;;10.80;1.98;;;15.60;99.90;;;;;;5058053;28;20083;-72
2022/09/15 07:16:19;;;;;;;8.63;1.88;;;15.70;99.90;;;;;;5057980;28;20183;-72
2022/09/15 07:18:45;;;;;;;5.82;1.63;;;15.70;99.90;;;;;;5057651;28;20508;-72
2022/09/15 07:21:17;;;;;;;7.15;1.75;;;15.90;99.90;;;;;;5057892;28;20116;-75
2022/09/15 07:23:43;;;;;;;6.45;1.48;;;16.00;99.90;;;;;;5057814;28;20048;-72
2022/09/15 07:26:11;;;;;;;6.40;2.10;;;16.10;99.90;;;;;;5051770;28;20362;-72
2022/09/15 07:28:38;;;;;;;7.30;1.55;;;16.30;99.90;;;;;;5037747;28;20045;-75
2022/09/15 07:31:05;;;;;;;9.23;1.95;;;16.30;99.90;;;;;;5038099;28;20037;-73
2022/09/15 07:33:32;;;;;;;8.98;1.40;;;16.40;99.90;;;;;;5037681;28;20056;-72
2022/09/15 07:36:00;;;;;;;7.15;1.77;;;16.40;99.90;;;;;;5037677;28;20085;-72
2022/09/15 07:38:26;;;;;;;5.63;1.65;;;16.50;99.90;;;;;;5037576;28;20056;-72
2022/09/15 07:40:51;;;;;;;7.43;1.35;;;16.70;99.90;;;;;;5037546;28;20125;-71
2022/09/15 07:43:17;;;;;;;6.53;1.25;;;16.60;99.90;;;;;;5019977;28;20053;-72
2022/09/15 07:45:43;;;;;;;7.97;1.45;;;16.80;99.90;;;;;;5037690;28;20091;-72
2022/09/15 07:48:09;;;;;;;8.82;1.60;;;16.80;99.90;;;;;;5037497;28;20077;-72
2022/09/15 07:50:34;;;;;;;5.13;1.30;;;17.00;99.90;;;;;;5037337;28;20447;-72
2022/09/15 07:53:00;;;;;;;6.10;1.40;;;17.10;99.90;;;;;;5056430;28;20041;-73
2022/09/15 07:55:26;;;;;;;7.97;1.42;;;17.10;99.90;;;;;;5039723;28;20445;-72
2022/09/15 07:58:02;;;;;;;8.68;1.40;;;17.10;99.90;;;;;;5057095;28;20052;-72
2022/09/15 08:00:28;;;;;;;5.22;1.10;;;17.10;99.90;;;;;;5045050;28;20430;-72
2022/09/15 08:02:54;;;;;;;6.05;1.40;;;17.00;99.90;;;;;;5052385;28;20127;-72
2022/09/15 08:05:19;;;;;;;5.20;1.10;;;16.90;99.90;;;;;;5057036;28;20129;-73
2022/09/15 08:07:45;;;;;;;6.20;1.48;;;16.90;99.90;;;;;;5057064;28;20059;-73
2022/09/15 08:10:10;;;;;;;8.40;1.35;;;16.80;99.90;;;;;;5057285;28;20041;-73
2022/09/15 08:12:36;;;;;;;6.20;1.38;;;16.70;99.90;;;;;;5056784;28;20051;-73
2022/09/15 08:15:03;;;;;;;4.95;1.65;;;16.70;99.90;;;;;;5056823;28;20078;-73
2022/09/15 08:17:28;;;;;;;6.47;1.90;;;16.60;99.90;;;;;;5041271;28;20038;-73
2022/09/15 08:19:54;;;;;;;5.97;1.25;;;16.50;99.90;;;;;;4997511;28;20116;-73
2022/09/15 08:22:20;;;;;;;6.13;1.58;;;16.60;99.90;;;;;;4997735;28;20046;-73
2022/09/15 08:24:45;;;;;;;9.75;1.52;;;16.60;99.90;;;;;;4997449;28;20053;-73
2022/09/15 08:27:11;;;;;;;10.55;1.88;;;16.70;99.90;;;;;;4997526;28;20570;-74
2022/09/15 08:29:37;;;;;;;5.63;1.42;;;17.00;99.90;;;;;;4997193;28;20375;-72
2022/09/15 08:32:02;;;;;;;7.63;1.27;;;17.00;99.90;;;;;;5008407;28;20103;-73
2022/09/15 08:34:29;;;;;;;5.13;1.40;;;17.10;99.90;;;;;;5016733;28;20068;-72
2022/09/15 08:36:54;;;;;;;6.53;1.33;;;17.40;99.90;;;;;;4998953;28;20578;-73
2022/09/15 08:39:20;;;;;;;5.22;1.75;;;17.60;99.90;;;;;;5016812;28;20217;-73
2022/09/15 08:41:48;;;;;;;7.30;1.27;;;17.70;99.90;;;;;;5016774;28;20451;-72
2022/09/15 08:44:39;;;;;;;8.45;2.20;;;17.90;99.90;;;;;;5016800;28;20060;-73
2022/09/15 08:47:32;;;;;;;5.25;1.20;;;18.10;99.90;;;;;;5016656;28;20045;-73
2022/09/15 08:50:14;;;;;;;4.33;1.10;;;18.10;99.90;;;;;;5015794;28;20045;-73
2022/09/15 08:52:44;;;;;;;6.57;1.58;;;18.10;99.90;;;;;;5016950;28;20301;-72
2022/09/15 08:55:49;;;;;;;4.20;1.30;;;18.00;99.90;;;;;;5016454;28;20054;-73
2022/09/15 08:58:27;;;;;;;7.93;1.70;;;17.90;99.90;;;;;;4998751;28;20046;-72
2022/09/15 09:01:16;;;;;;;9.93;1.77;;;18.00;99.90;;;;;;5016127;28;20045;-74
2022/09/15 09:03:59;;;;;;;13.75;2.05;;;18.10;99.90;;;;;;5005706;28;20145;-72
2022/09/15 09:06:45;;;;;;;5.82;1.50;;;18.20;99.90;;;;;;5015770;28;20112;-73
2022/09/15 09:09:37;;;;;;;11.70;2.13;;;18.20;99.90;;;;;;5016030;28;20054;-72
2022/09/15 09:12:21;;;;;;;7.05;1.75;;;18.20;99.90;;;;;;5015393;28;20056;-73
2022/09/15 09:15:17;;;;;;;5.40;1.77;;;18.30;99.90;;;;;;5016392;28;20046;-74
2022/09/15 09:18:14;;;;;;;5.65;1.40;;;18.20;99.90;;;;;;5003792;28;20050;-73
2022/09/15 09:21:02;;;;;;;5.32;1.50;;;18.10;99.90;;;;;;5036071;28;20049;-73
2022/09/15 09:23:31;;;;;;;8.20;1.60;;;17.90;99.90;;;;;;5035568;28;20049;-73
2022/09/15 09:25:57;;;;;;;4.63;1.30;;;17.70;99.90;;;;;;5035551;28;20377;-72
2022/09/15 09:28:30;;;;;;;4.53;1.42;;;17.60;99.90;;;;;;5035816;28;20060;-73
2022/09/15 09:31:05;;;;;;;9.60;1.80;;;17.50;99.90;;;;;;5035539;28;20085;-73
2022/09/15 09:33:42;;;;;;;5.20;1.27;;;17.50;99.90;;;;;;5035235;28;20295;-73
2022/09/15 09:36:10;;;;;;;8.02;1.40;;;17.50;99.90;;;;;;5035019;28;20919;-72
2022/09/15 09:38:42;;;;;;;5.35;1.42;;;17.50;99.90;;;;;;5035449;28;20103;-74
2022/09/15 09:41:14;;;;;;;5.95;1.40;;;17.70;99.90;;;;;;5035648;28;20041;-72
2022/09/15 09:43:42;;;;;;;7.88;1.52;;;17.80;99.90;;;;;;5035351;28;20149;-72
2022/09/15 09:46:14;;;;;;;5.93;1.55;;;17.90;99.90;;;;;;5025335;28;20049;-73
2022/09/15 09:48:46;;;;;;;8.85;1.60;;;18.00;99.90;;;;;;5015307;28;20381;-73
2022/09/15 09:51:30;;;;;;;5.70;1.48;;;18.10;99.90;;;;;;5015400;28;20042;-73
2022/09/15 09:54:03;;;;;;;8.13;1.50;;;18.30;99.90;;;;;;5015350;28;20056;-72
2022/09/15 09:56:29;;;;;;;;;;;18.60;99.90;;;;;;5016129;28;20038;-73
2022/09/15 09:58:54;;;;;;;8.48;1.63;;;18.70;99.90;;;;;;5015340;28;19984;-74
2022/09/15 10:01:24;;;;;;;9.07;1.85;;;18.60;99.90;;;;;;5014985;28;20092;-72
2022/09/15 10:04:18;;;;;;;7.45;1.95;;;18.30;99.90;;;;;;5015659;28;20050;-74
2022/09/15 10:06:45;;;;;;;5.43;1.30;;;17.50;99.90;;;;;;5015264;28;20056;-72
2022/09/15 10:09:16;;;;;;;7.07;1.65;;;17.20;99.90;;;;;;5015200;28;20451;-72
2022/09/15 10:11:46;;;;;;;9.45;1.90;;;17.00;99.90;;;;;;5015078;28;20352;-73
2022/09/15 10:14:26;;;;;;;6.35;1.65;;;16.90;99.90;;;;;;5014635;28;20470;-72
2022/09/15 10:16:55;;;;;;;5.18;1.33;;;17.10;99.90;;;;;;5034817;28;20056;-73
2022/09/15 10:19:21;;;;;;;5.70;1.35;;;17.30;99.90;;;;;;5034808;28;20079;-72
2022/09/15 10:21:46;;;;;;;6.63;1.10;;;17.40;99.90;;;;;;5034753;28;20489;-73
2022/09/15 10:24:32;;;;;;;4.40;1.15;;;17.40;99.90;;;;;;5034642;28;20085;-72
2022/09/15 10:27:19;;;;;;;4.35;1.40;;;17.50;99.90;;;;;;5034764;28;20050;-73
2022/09/15 10:29:46;;;;;;;5.57;1.30;;;17.40;99.90;;;;;;5030191;28;20038;-72
2022/09/15 10:32:21;;;;;;;5.03;1.52;;;17.50;99.90;;;;;;5019239;28;20038;-72
2022/09/15 10:34:50;;;;;;;5.22;1.33;;;17.60;99.90;;;;;;5019540;28;20049;-72
2022/09/15 10:37:29;;;;;;;6.95;1.20;;;17.90;99.90;;;;;;5018664;28;20526;-72
2022/09/15 10:39:58;;;;;;;5.30;1.23;;;18.20;99.90;;;;;;5018923;28;20050;-73
2022/09/15 10:42:46;;;;;;;5.57;1.50;;;18.50;99.90;;;;;;5019160;28;20133;-73
2022/09/15 10:45:36;;;;;;;5.43;1.55;;;18.80;99.90;;;;;;5028761;28;20056;-73
2022/09/15 10:48:29;;;;;;;6.45;1.50;;;18.90;99.90;;;;;;5038732;28;20041;-73
2022/09/15 10:51:05;;;;;;;6.35;1.55;;;19.10;99.90;;;;;;5038633;28;20445;-73
2022/09/15 10:53:50;;;;;;;7.18;1.67;;;19.40;99.90;;;;;;5020730;28;20374;-73
2022/09/15 10:56:47;;;;;;;4.40;1.65;;;19.40;99.90;;;;;;5038552;28;20394;-73
2022/09/15 10:59:12;;;;;;;4.88;1.48;;;19.30;99.90;;;;;;5021750;28;20405;-74
2022/09/15 11:01:58;;;;;;;7.50;0.93;;;18.70;99.90;;;;;;5038539;28;20053;-71
2022/09/15 11:04:39;;;;;;;5.30;1.10;;;18.30;99.90;;;;;;5024013;28;20145;-72
2022/09/15 11:07:18;;;;;;;5.57;1.25;;;17.70;99.90;;;;;;5038304;28;20041;-71
2022/09/15 11:09:53;;;;;;;7.00;1.10;;;17.50;99.90;;;;;;5038354;28;20057;-72
2022/09/15 11:12:27;;;;;;;4.30;1.23;;;17.40;99.90;;;;;;5038442;28;20369;-72
2022/09/15 11:15:15;;;;;;;4.20;1.27;;;17.30;99.90;;;;;;5025862;28;20068;-72
2022/09/15 11:17:54;;;;;;;3.92;0.90;;;17.40;99.90;;;;;;5017988;28;20513;-73
2022/09/15 11:21:00;;;;;;;9.93;1.67;;;17.70;99.90;;;;;;5018315;28;20443;-72
2022/09/15 11:23:41;;;;;;;4.20;1.02;;;17.90;99.90;;;;;;5018174;28;20050;-73
2022/09/15 11:26:20;;;;;;;4.45;1.10;;;17.90;99.90;;;;;;5018125;28;20136;-74
2022/09/15 11:29:06;;;;;;;5.20;1.20;;;18.10;99.90;;;;;;5017534;28;20474;-73
2022/09/15 11:31:45;;;;;;;2.42;0.80;;;18.20;99.90;;;;;;5017728;28;20050;-73
2022/09/15 11:34:16;;;;;;;2.25;0.70;;;18.20;99.90;;;;;;5017897;28;20129;-73
2022/09/15 11:37:02;;;;;;;5.20;1.00;;;18.20;99.90;;;;;;5018139;28;20052;-73
2022/09/15 11:39:44;;;;;;;2.92;1.00;;;18.20;99.90;;;;;;5017519;28;20045;-73
2022/09/15 11:42:45;;;;;;;2.05;0.60;;;18.30;99.90;;;;;;5017645;28;20056;-73
2022/09/15 11:45:37;;;;;;;4.20;0.90;;;18.30;99.90;;;;;;5002677;28;20065;-73
2022/09/15 11:48:12;;;;;;;2.22;0.70;;;18.30;99.90;;;;;;5017352;28;20057;-73
2022/09/15 11:50:42;;;;;;;3.42;0.77;;;18.30;99.90;;;;;;5017850;28;20132;-72
2022/09/15 11:53:26;;;;;;;5.18;1.00;;;18.40;99.90;;;;;;5017626;28;20041;-73
2022/09/15 11:56:14;;;;;;;5.30;1.30;;;18.60;99.90;;;;;;5017548;28;20485;-73
2022/09/15 11:58:40;;;;;;;3.10;1.00;;;18.60;99.90;;;;;;5017425;28;20045;-74
2022/09/15 12:01:17;;;;;;;4.65;1.00;;;18.70;99.90;;;;;;5017633;28;20077;-74
2022/09/15 12:04:17;;;;;;;8.43;1.30;;;18.60;99.90;;;;;;5000282;28;20085;-74
2022/09/15 12:07:01;;;;;;;6.35;1.17;;;18.60;99.90;;;;;;5012954;28;20451;-74
2022/09/15 12:09:28;;;;;;;5.68;1.35;;;18.50;99.90;;;;;;5017609;28;20042;-73
2022/09/15 12:11:59;;;;;;;3.88;1.10;;;18.60;99.90;;;;;;5017386;28;20489;-74
2022/09/15 12:14:33;;;;;;;4.82;1.50;;;18.60;99.90;;;;;;4999817;28;20076;-74
2022/09/15 12:17:00;;;;;;;3.80;0.80;;;18.80;99.90;;;;;;5016509;28;20061;-74
2022/09/15 12:19:34;;;;;;;6.75;1.48;;;19.00;99.90;;;;;;5033796;28;20054;-74
2022/09/15 12:22:38;;;;;;;6.25;1.15;;;19.20;99.90;;;;;;5036843;28;20059;-74
2022/09/15 12:25:17;;;;;;;4.15;1.20;;;19.40;99.80;;;;;;5041564;28;20064;-74
2022/09/15 12:27:42;;;;;;;3.50;1.60;;;19.40;99.00;;;;;;5056669;28;20048;-74
2022/09/15 12:30:39;;;;;;;6.85;1.25;;;19.10;99.90;;;;;;5056724;28;20471;-73
2022/09/15 12:33:42;;;;;;;8.07;1.23;;;18.90;99.90;;;;;;5056233;28;20081;-75
2022/09/15 12:36:33;;;;;;;4.72;1.00;;;18.90;99.90;;;;;;5056487;28;20045;-74
2022/09/15 12:39:01;;;;;;;4.45;1.25;;;18.90;99.90;;;;;;5056366;28;20056;-73
2022/09/15 12:41:27;;;;;;;4.75;1.00;;;19.00;99.90;;;;;;5045401;28;20076;-74
2022/09/15 12:43:57;;;;;;;4.00;1.00;;;18.90;99.90;;;;;;5036681;28;20033;-73
2022/09/15 12:46:24;;;;;;;4.75;1.17;;;19.00;99.90;;;;;;5018660;28;20061;-74
2022/09/15 12:48:51;;;;;;;6.05;1.10;;;19.00;99.40;;;;;;5036780;28;20397;-73
2022/09/15 12:51:22;;;;;;;3.22;1.00;;;19.10;98.60;;;;;;5036204;28;20045;-74
2022/09/15 12:53:56;;;;;;;2.17;0.90;;;19.00;98.80;;;;;;5035493;28;20057;-73
2022/09/15 12:56:30;;;;;;;3.63;0.70;;;19.10;99.60;;;;;;5018624;28;20061;-74
2022/09/15 12:59:05;;;;;;;3.85;1.00;;;19.10;98.10;;;;;;5036032;28;20397;-73
2022/09/15 13:01:46;;;;;;;4.72;1.10;;;19.20;98.50;;;;;;5036172;28;20053;-74
2022/09/15 13:04:45;;;;;;;3.60;0.82;;;19.20;98.40;;;;;;5036457;28;20038;-73
2022/09/15 13:07:17;;;;;;;3.63;0.80;;;19.00;98.80;;;;;;5042021;28;20106;-73
2022/09/15 13:10:11;;;;;;;2.20;0.70;;;19.10;99.70;;;;;;5038745;28;20106;-74
2022/09/15 13:12:42;;;;;;;4.85;1.00;;;19.10;99.70;;;;;;5046575;28;20122;-74